sensor_id;sensor_type;location;lat;lon;timestamp;P1;durP1;ratioP1;P2;durP2;ratioP2
6017;SDS011;3037;51.068;13.780;2022-08-19T00:00:04;18.20;;;14.20;;
6017;SDS011;3037;51.068;13.780;2022-08-19T00:02:32;16.90;;;13.50;;
6017;SDS011;3037;51.068;13.780;2022-08-19T00:04:58;15.83;;;13.50;;
6017;SDS011;3037;51.068;13.780;2022-08-19T00:07:24;16.03;;;14.50;;
6017;SDS011;3037;51.068;13.780;2022-08-19T00:09:49;14.87;;;13.27;;
6017;SDS011;3037;51.068;13.780;2022-08-19T00:12:15;14.30;;;12.93;;
6017;SDS011;3037;51.068;13.780;2022-08-19T00:14:40;16.10;;;13.60;;
6017;SDS011;3037;51.068;13.780;2022-08-19T00:17:06;15.53;;;13.70;;
6017;SDS011;3037;51.068;13.780;2022-08-19T00:19:33;15.60;;;14.13;;
6017;SDS011;3037;51.068;13.780;2022-08-19T00:21:59;15.33;;;13.50;;
6017;SDS011;3037;51.068;13.780;2022-08-19T00:24:24;18.20;;;15.90;;
6017;SDS011;3037;51.068;13.780;2022-08-19T00:26:51;21.93;;;15.43;;
6017;SDS011;3037;51.068;13.780;2022-08-19T00:29:18;19.50;;;14.50;;
6017;SDS011;3037;51.068;13.780;2022-08-19T00:31:45;16.80;;;14.70;;
6017;SDS011;3037;51.068;13.780;2022-08-19T00:34:12;16.80;;;15.13;;
6017;SDS011;3037;51.068;13.780;2022-08-19T00:36:41;16.43;;;14.83;;
6017;SDS011;3037;51.068;13.780;2022-08-19T00:39:07;21.80;;;14.70;;
6017;SDS011;3037;51.068;13.780;2022-08-19T00:41:34;15.13;;;13.50;;
6017;SDS011;3037;51.068;13.780;2022-08-19T00:44:00;18.77;;;16.80;;
6017;SDS011;3037;51.068;13.780;2022-08-19T00:46:28;16.63;;;15.00;;
6017;SDS011;3037;51.068;13.780;2022-08-19T00:48:55;18.40;;;14.87;;
6017;SDS011;3037;51.068;13.780;2022-08-19T00:51:22;16.80;;;15.00;;
6017;SDS011;3037;51.068;13.780;2022-08-19T00:53:51;15.53;;;13.93;;
6017;SDS011;3037;51.068;13.780;2022-08-19T00:56:19;18.23;;;16.20;;
6017;SDS011;3037;51.068;13.780;2022-08-19T00:58:44;16.87;;;15.27;;
6017;SDS011;3037;51.068;13.780;2022-08-19T01:01:10;21.90;;;16.50;;
6017;SDS011;3037;51.068;13.780;2022-08-19T01:03:35;19.07;;;17.07;;
6017;SDS011;3037;51.068;13.780;2022-08-19T01:06:01;16.33;;;14.83;;
6017;SDS011;3037;51.068;13.780;2022-08-19T01:08:27;23.43;;;17.57;;
6017;SDS011;3037;51.068;13.780;2022-08-19T01:10:54;19.17;;;15.70;;
6017;SDS011;3037;51.068;13.780;2022-08-19T01:13:23;20.73;;;16.60;;
6017;SDS011;3037;51.068;13.780;2022-08-19T01:15:54;23.00;;;16.57;;
6017;SDS011;3037;51.068;13.780;2022-08-19T01:18:22;16.57;;;14.97;;
6017;SDS011;3037;51.068;13.780;2022-08-19T01:20:50;23.73;;;15.90;;
6017;SDS011;3037;51.068;13.780;2022-08-19T01:23:16;19.80;;;17.60;;
6017;SDS011;3037;51.068;13.780;2022-08-19T01:25:44;19.60;;;16.70;;
6017;SDS011;3037;51.068;13.780;2022-08-19T01:28:26;19.13;;;16.30;;
6017;SDS011;3037;51.068;13.780;2022-08-19T01:30:52;20.13;;;17.67;;
6017;SDS011;3037;51.068;13.780;2022-08-19T01:33:18;20.60;;;18.23;;
6017;SDS011;3037;51.068;13.780;2022-08-19T01:35:44;26.23;;;17.83;;
6017;SDS011;3037;51.068;13.780;2022-08-19T01:38:19;22.33;;;17.70;;
6017;SDS011;3037;51.068;13.780;2022-08-19T01:40:48;21.83;;;17.93;;
6017;SDS011;3037;51.068;13.780;2022-08-19T01:43:14;20.67;;;17.53;;
6017;SDS011;3037;51.068;13.780;2022-08-19T01:45:40;19.37;;;17.37;;
6017;SDS011;3037;51.068;13.780;2022-08-19T01:48:08;21.50;;;17.23;;
6017;SDS011;3037;51.068;13.780;2022-08-19T01:50:34;22.53;;;19.23;;
6017;SDS011;3037;51.068;13.780;2022-08-19T01:53:01;20.37;;;18.03;;
6017;SDS011;3037;51.068;13.780;2022-08-19T01:55:29;19.20;;;16.90;;
6017;SDS011;3037;51.068;13.780;2022-08-19T01:57:56;18.87;;;16.97;;
6017;SDS011;3037;51.068;13.780;2022-08-19T02:00:25;20.80;;;17.27;;
6017;SDS011;3037;51.068;13.780;2022-08-19T02:02:54;19.87;;;17.80;;
6017;SDS011;3037;51.068;13.780;2022-08-19T02:05:20;20.00;;;16.07;;
6017;SDS011;3037;51.068;13.780;2022-08-19T02:07:46;22.77;;;17.33;;
6017;SDS011;3037;51.068;13.780;2022-08-19T02:10:14;19.93;;;17.90;;
6017;SDS011;3037;51.068;13.780;2022-08-19T02:12:42;20.13;;;17.93;;
6017;SDS011;3037;51.068;13.780;2022-08-19T02:15:08;20.73;;;17.83;;
6017;SDS011;3037;51.068;13.780;2022-08-19T02:17:34;23.50;;;17.47;;
6017;SDS011;3037;51.068;13.780;2022-08-19T02:20:00;19.77;;;17.57;;
6017;SDS011;3037;51.068;13.780;2022-08-19T02:22:26;20.63;;;18.47;;
6017;SDS011;3037;51.068;13.780;2022-08-19T02:24:52;21.57;;;17.33;;
6017;SDS011;3037;51.068;13.780;2022-08-19T02:27:19;19.43;;;16.70;;
6017;SDS011;3037;51.068;13.780;2022-08-19T02:29:48;18.53;;;16.53;;
6017;SDS011;3037;51.068;13.780;2022-08-19T02:32:14;20.03;;;16.73;;
6017;SDS011;3037;51.068;13.780;2022-08-19T02:34:40;20.63;;;16.43;;
6017;SDS011;3037;51.068;13.780;2022-08-19T02:37:06;26.70;;;17.80;;
6017;SDS011;3037;51.068;13.780;2022-08-19T02:39:52;21.40;;;18.30;;
6017;SDS011;3037;51.068;13.780;2022-08-19T02:42:17;22.80;;;18.00;;
6017;SDS011;3037;51.068;13.780;2022-08-19T02:44:43;17.77;;;16.07;;
6017;SDS011;3037;51.068;13.780;2022-08-19T02:47:09;19.97;;;17.20;;
6017;SDS011;3037;51.068;13.780;2022-08-19T02:49:35;21.37;;;19.00;;
6017;SDS011;3037;51.068;13.780;2022-08-19T02:52:01;20.10;;;18.10;;
6017;SDS011;3037;51.068;13.780;2022-08-19T02:54:27;19.20;;;17.40;;
6017;SDS011;3037;51.068;13.780;2022-08-19T02:56:53;20.13;;;18.13;;
6017;SDS011;3037;51.068;13.780;2022-08-19T02:59:19;21.90;;;18.20;;
6017;SDS011;3037;51.068;13.780;2022-08-19T03:01:45;21.90;;;17.73;;
6017;SDS011;3037;51.068;13.780;2022-08-19T03:04:12;20.17;;;17.90;;
6017;SDS011;3037;51.068;13.780;2022-08-19T03:06:40;26.47;;;18.10;;
6017;SDS011;3037;51.068;13.780;2022-08-19T03:09:07;19.73;;;16.43;;
6017;SDS011;3037;51.068;13.780;2022-08-19T03:11:33;21.97;;;18.03;;
6017;SDS011;3037;51.068;13.780;2022-08-19T03:13:59;22.53;;;17.53;;
6017;SDS011;3037;51.068;13.780;2022-08-19T03:16:26;18.57;;;16.73;;
6017;SDS011;3037;51.068;13.780;2022-08-19T03:18:55;19.13;;;17.10;;
6017;SDS011;3037;51.068;13.780;2022-08-19T03:21:24;20.40;;;17.63;;
6017;SDS011;3037;51.068;13.780;2022-08-19T03:23:55;22.63;;;18.10;;
6017;SDS011;3037;51.068;13.780;2022-08-19T03:26:22;21.30;;;19.00;;
6017;SDS011;3037;51.068;13.780;2022-08-19T03:28:47;23.27;;;19.33;;
6017;SDS011;3037;51.068;13.780;2022-08-19T03:31:15;20.87;;;18.80;;
6017;SDS011;3037;51.068;13.780;2022-08-19T03:33:42;22.73;;;19.70;;
6017;SDS011;3037;51.068;13.780;2022-08-19T03:36:10;26.53;;;18.40;;
6017;SDS011;3037;51.068;13.780;2022-08-19T03:38:44;21.80;;;18.40;;
6017;SDS011;3037;51.068;13.780;2022-08-19T03:41:14;23.43;;;19.13;;
6017;SDS011;3037;51.068;13.780;2022-08-19T03:43:42;23.60;;;18.60;;
6017;SDS011;3037;51.068;13.780;2022-08-19T03:46:09;28.70;;;20.30;;
6017;SDS011;3037;51.068;13.780;2022-08-19T03:48:37;24.23;;;19.63;;
6017;SDS011;3037;51.068;13.780;2022-08-19T03:51:04;22.93;;;20.53;;
6017;SDS011;3037;51.068;13.780;2022-08-19T03:53:31;21.40;;;18.57;;
6017;SDS011;3037;51.068;13.780;2022-08-19T03:55:57;23.70;;;20.23;;
6017;SDS011;3037;51.068;13.780;2022-08-19T03:58:27;24.93;;;19.17;;
6017;SDS011;3037;51.068;13.780;2022-08-19T04:00:54;20.47;;;18.27;;
6017;SDS011;3037;51.068;13.780;2022-08-19T04:03:21;24.47;;;20.53;;
6017;SDS011;3037;51.068;13.780;2022-08-19T04:05:47;19.20;;;17.30;;
6017;SDS011;3037;51.068;13.780;2022-08-19T04:08:13;23.97;;;19.97;;
6017;SDS011;3037;51.068;13.780;2022-08-19T04:10:43;28.63;;;22.03;;
6017;SDS011;3037;51.068;13.780;2022-08-19T04:13:09;22.47;;;20.03;;
6017;SDS011;3037;51.068;13.780;2022-08-19T04:15:38;22.40;;;19.57;;
6017;SDS011;3037;51.068;13.780;2022-08-19T04:18:06;23.33;;;20.10;;
6017;SDS011;3037;51.068;13.780;2022-08-19T04:20:37;22.77;;;20.20;;
6017;SDS011;3037;51.068;13.780;2022-08-19T04:23:10;21.40;;;18.93;;
6017;SDS011;3037;51.068;13.780;2022-08-19T04:25:38;29.33;;;19.20;;
6017;SDS011;3037;51.068;13.780;2022-08-19T04:28:05;22.60;;;19.10;;
6017;SDS011;3037;51.068;13.780;2022-08-19T04:30:36;21.83;;;19.37;;
6017;SDS011;3037;51.068;13.780;2022-08-19T04:33:03;22.60;;;19.77;;
6017;SDS011;3037;51.068;13.780;2022-08-19T04:35:34;21.87;;;19.60;;
6017;SDS011;3037;51.068;13.780;2022-08-19T04:38:01;32.70;;;21.30;;
6017;SDS011;3037;51.068;13.780;2022-08-19T04:40:26;25.40;;;22.50;;
6017;SDS011;3037;51.068;13.780;2022-08-19T04:43:10;31.73;;;23.20;;
6017;SDS011;3037;51.068;13.780;2022-08-19T04:45:40;27.30;;;21.00;;
6017;SDS011;3037;51.068;13.780;2022-08-19T04:48:08;24.67;;;21.97;;
6017;SDS011;3037;51.068;13.780;2022-08-19T04:50:33;25.13;;;21.17;;
6017;SDS011;3037;51.068;13.780;2022-08-19T04:52:59;23.47;;;20.30;;
6017;SDS011;3037;51.068;13.780;2022-08-19T04:55:24;25.53;;;19.70;;
6017;SDS011;3037;51.068;13.780;2022-08-19T04:57:50;26.20;;;20.07;;
6017;SDS011;3037;51.068;13.780;2022-08-19T05:00:16;23.30;;;20.87;;
6017;SDS011;3037;51.068;13.780;2022-08-19T05:02:42;24.80;;;21.40;;
6017;SDS011;3037;51.068;13.780;2022-08-19T05:05:08;28.43;;;20.10;;
6017;SDS011;3037;51.068;13.780;2022-08-19T05:07:34;24.37;;;21.87;;
6017;SDS011;3037;51.068;13.780;2022-08-19T05:09:59;28.83;;;19.80;;
6017;SDS011;3037;51.068;13.780;2022-08-19T05:12:25;25.57;;;19.53;;
6017;SDS011;3037;51.068;13.780;2022-08-19T05:14:53;21.07;;;18.77;;
6017;SDS011;3037;51.068;13.780;2022-08-19T05:17:19;23.90;;;19.97;;
6017;SDS011;3037;51.068;13.780;2022-08-19T05:19:44;23.50;;;20.90;;
6017;SDS011;3037;51.068;13.780;2022-08-19T05:22:28;28.50;;;21.50;;
6017;SDS011;3037;51.068;13.780;2022-08-19T05:24:57;23.80;;;21.20;;
6017;SDS011;3037;51.068;13.780;2022-08-19T05:27:23;23.17;;;20.13;;
6017;SDS011;3037;51.068;13.780;2022-08-19T05:29:48;23.13;;;20.80;;
6017;SDS011;3037;51.068;13.780;2022-08-19T05:32:14;22.37;;;20.07;;
6017;SDS011;3037;51.068;13.780;2022-08-19T05:34:39;22.60;;;20.27;;
6017;SDS011;3037;51.068;13.780;2022-08-19T05:37:05;31.27;;;20.00;;
6017;SDS011;3037;51.068;13.780;2022-08-19T05:39:33;21.87;;;19.53;;
6017;SDS011;3037;51.068;13.780;2022-08-19T05:42:01;21.83;;;18.73;;
6017;SDS011;3037;51.068;13.780;2022-08-19T05:44:29;26.43;;;18.30;;
6017;SDS011;3037;51.068;13.780;2022-08-19T05:46:57;22.43;;;20.03;;
6017;SDS011;3037;51.068;13.780;2022-08-19T05:49:23;26.23;;;18.60;;
6017;SDS011;3037;51.068;13.780;2022-08-19T05:51:50;23.80;;;19.40;;
6017;SDS011;3037;51.068;13.780;2022-08-19T05:54:16;25.17;;;21.23;;
6017;SDS011;3037;51.068;13.780;2022-08-19T05:56:42;24.27;;;20.73;;
6017;SDS011;3037;51.068;13.780;2022-08-19T05:59:09;27.83;;;19.80;;
6017;SDS011;3037;51.068;13.780;2022-08-19T06:01:39;25.30;;;20.60;;
6017;SDS011;3037;51.068;13.780;2022-08-19T06:04:06;21.57;;;18.87;;
6017;SDS011;3037;51.068;13.780;2022-08-19T06:06:33;21.27;;;19.00;;
6017;SDS011;3037;51.068;13.780;2022-08-19T06:08:59;24.17;;;20.43;;
6017;SDS011;3037;51.068;13.780;2022-08-19T06:11:33;28.50;;;21.13;;
6017;SDS011;3037;51.068;13.780;2022-08-19T06:14:02;27.50;;;20.73;;
6017;SDS011;3037;51.068;13.780;2022-08-19T06:16:40;22.57;;;20.17;;
6017;SDS011;3037;51.068;13.780;2022-08-19T06:19:08;25.43;;;18.77;;
6017;SDS011;3037;51.068;13.780;2022-08-19T06:21:37;19.00;;;16.10;;
6017;SDS011;3037;51.068;13.780;2022-08-19T06:24:05;18.60;;;16.60;;
6017;SDS011;3037;51.068;13.780;2022-08-19T06:26:33;31.10;;;16.90;;
6017;SDS011;3037;51.068;13.780;2022-08-19T06:29:00;17.00;;;15.30;;
6017;SDS011;3037;51.068;13.780;2022-08-19T06:31:27;21.73;;;14.17;;
6017;SDS011;3037;51.068;13.780;2022-08-19T06:33:53;15.97;;;14.37;;
6017;SDS011;3037;51.068;13.780;2022-08-19T06:36:20;14.97;;;13.37;;
6017;SDS011;3037;51.068;13.780;2022-08-19T06:38:50;15.07;;;13.40;;
6017;SDS011;3037;51.068;13.780;2022-08-19T06:41:16;13.07;;;11.87;;
6017;SDS011;3037;51.068;13.780;2022-08-19T06:43:41;13.77;;;12.30;;
6017;SDS011;3037;51.068;13.780;2022-08-19T06:46:11;18.83;;;12.90;;
6017;SDS011;3037;51.068;13.780;2022-08-19T06:48:38;15.20;;;13.17;;
6017;SDS011;3037;51.068;13.780;2022-08-19T06:51:04;14.80;;;13.30;;
6017;SDS011;3037;51.068;13.780;2022-08-19T06:53:30;15.50;;;13.90;;
6017;SDS011;3037;51.068;13.780;2022-08-19T06:55:56;16.37;;;14.67;;
6017;SDS011;3037;51.068;13.780;2022-08-19T06:58:25;17.70;;;15.80;;
6017;SDS011;3037;51.068;13.780;2022-08-19T07:00:51;15.53;;;14.03;;
6017;SDS011;3037;51.068;13.780;2022-08-19T07:03:16;16.33;;;14.63;;
6017;SDS011;3037;51.068;13.780;2022-08-19T07:05:42;17.57;;;15.87;;
6017;SDS011;3037;51.068;13.780;2022-08-19T07:08:08;22.33;;;16.83;;
6017;SDS011;3037;51.068;13.780;2022-08-19T07:10:34;20.70;;;15.93;;
6017;SDS011;3037;51.068;13.780;2022-08-19T07:13:01;18.70;;;16.57;;
6017;SDS011;3037;51.068;13.780;2022-08-19T07:15:28;18.57;;;16.67;;
6017;SDS011;3037;51.068;13.780;2022-08-19T07:17:53;19.07;;;17.03;;
6017;SDS011;3037;51.068;13.780;2022-08-19T07:20:19;22.93;;;17.67;;
6017;SDS011;3037;51.068;13.780;2022-08-19T07:22:45;22.70;;;18.20;;
6017;SDS011;3037;51.068;13.780;2022-08-19T07:25:10;20.13;;;17.70;;
6017;SDS011;3037;51.068;13.780;2022-08-19T07:27:38;23.70;;;18.03;;
6017;SDS011;3037;51.068;13.780;2022-08-19T07:30:03;24.77;;;18.93;;
6017;SDS011;3037;51.068;13.780;2022-08-19T07:32:30;21.80;;;19.23;;
6017;SDS011;3037;51.068;13.780;2022-08-19T07:34:56;25.33;;;19.40;;
6017;SDS011;3037;51.068;13.780;2022-08-19T07:37:21;29.73;;;19.53;;
6017;SDS011;3037;51.068;13.780;2022-08-19T07:39:48;26.53;;;18.70;;
6017;SDS011;3037;51.068;13.780;2022-08-19T07:42:14;25.00;;;19.93;;
6017;SDS011;3037;51.068;13.780;2022-08-19T07:44:39;25.87;;;20.40;;
6017;SDS011;3037;51.068;13.780;2022-08-19T07:47:06;22.43;;;20.07;;
6017;SDS011;3037;51.068;13.780;2022-08-19T07:49:31;37.07;;;19.30;;
6017;SDS011;3037;51.068;13.780;2022-08-19T07:51:59;24.23;;;19.47;;
6017;SDS011;3037;51.068;13.780;2022-08-19T07:54:28;22.17;;;18.60;;
6017;SDS011;3037;51.068;13.780;2022-08-19T07:56:56;24.27;;;19.80;;
6017;SDS011;3037;51.068;13.780;2022-08-19T07:59:22;29.43;;;19.20;;
6017;SDS011;3037;51.068;13.780;2022-08-19T08:01:49;20.90;;;18.00;;
6017;SDS011;3037;51.068;13.780;2022-08-19T08:04:16;24.73;;;20.30;;
6017;SDS011;3037;51.068;13.780;2022-08-19T08:07:01;22.47;;;20.10;;
6017;SDS011;3037;51.068;13.780;2022-08-19T08:09:46;31.13;;;21.20;;
6017;SDS011;3037;51.068;13.780;2022-08-19T08:14:44;21.50;;;19.30;;
6017;SDS011;3037;51.068;13.780;2022-08-19T08:17:12;30.77;;;20.60;;
6017;SDS011;3037;51.068;13.780;2022-08-19T08:19:39;25.23;;;19.70;;
6017;SDS011;3037;51.068;13.780;2022-08-19T08:22:06;24.80;;;21.63;;
6017;SDS011;3037;51.068;13.780;2022-08-19T08:24:33;26.27;;;21.37;;
6017;SDS011;3037;51.068;13.780;2022-08-19T08:27:00;27.20;;;20.03;;
6017;SDS011;3037;51.068;13.780;2022-08-19T08:29:28;30.53;;;20.77;;
6017;SDS011;3037;51.068;13.780;2022-08-19T08:31:54;23.40;;;20.60;;
6017;SDS011;3037;51.068;13.780;2022-08-19T08:34:20;25.93;;;19.60;;
6017;SDS011;3037;51.068;13.780;2022-08-19T08:36:46;21.30;;;19.10;;
6017;SDS011;3037;51.068;13.780;2022-08-19T08:39:13;21.77;;;18.93;;
6017;SDS011;3037;51.068;13.780;2022-08-19T08:44:15;28.53;;;19.77;;
6017;SDS011;3037;51.068;13.780;2022-08-19T08:46:46;22.23;;;18.03;;
6017;SDS011;3037;51.068;13.780;2022-08-19T08:49:40;22.90;;;17.60;;
6017;SDS011;3037;51.068;13.780;2022-08-19T08:52:24;20.23;;;17.07;;
6017;SDS011;3037;51.068;13.780;2022-08-19T08:54:54;18.40;;;15.47;;
6017;SDS011;3037;51.068;13.780;2022-08-19T08:57:27;19.70;;;15.07;;
6017;SDS011;3037;51.068;13.780;2022-08-19T08:59:57;17.40;;;15.70;;
6017;SDS011;3037;51.068;13.780;2022-08-19T09:02:25;18.00;;;13.60;;
6017;SDS011;3037;51.068;13.780;2022-08-19T09:04:51;16.80;;;15.00;;
6017;SDS011;3037;51.068;13.780;2022-08-19T09:09:48;16.57;;;14.77;;
6017;SDS011;3037;51.068;13.780;2022-08-19T09:12:23;21.47;;;15.33;;
6017;SDS011;3037;51.068;13.780;2022-08-19T09:15:11;18.23;;;12.67;;
6017;SDS011;3037;51.068;13.780;2022-08-19T09:17:38;17.53;;;15.80;;
6017;SDS011;3037;51.068;13.780;2022-08-19T09:22:43;16.57;;;14.30;;
6017;SDS011;3037;51.068;13.780;2022-08-19T09:25:09;23.20;;;15.80;;
6017;SDS011;3037;51.068;13.780;2022-08-19T09:27:37;17.80;;;15.30;;
6017;SDS011;3037;51.068;13.780;2022-08-19T09:30:05;16.87;;;15.07;;
6017;SDS011;3037;51.068;13.780;2022-08-19T09:32:32;19.43;;;15.50;;
6017;SDS011;3037;51.068;13.780;2022-08-19T09:34:58;15.93;;;13.57;;
6017;SDS011;3037;51.068;13.780;2022-08-19T09:37:25;16.77;;;14.97;;
6017;SDS011;3037;51.068;13.780;2022-08-19T09:39:51;17.67;;;14.80;;
6017;SDS011;3037;51.068;13.780;2022-08-19T09:42:17;15.70;;;14.20;;
6017;SDS011;3037;51.068;13.780;2022-08-19T09:44:43;15.90;;;14.27;;
6017;SDS011;3037;51.068;13.780;2022-08-19T09:47:10;16.33;;;14.80;;
6017;SDS011;3037;51.068;13.780;2022-08-19T09:49:37;18.27;;;16.40;;
6017;SDS011;3037;51.068;13.780;2022-08-19T09:52:04;18.90;;;14.70;;
6017;SDS011;3037;51.068;13.780;2022-08-19T09:54:31;17.57;;;15.70;;
6017;SDS011;3037;51.068;13.780;2022-08-19T09:56:58;22.33;;;14.57;;
6017;SDS011;3037;51.068;13.780;2022-08-19T09:59:25;16.73;;;15.13;;
6017;SDS011;3037;51.068;13.780;2022-08-19T10:01:51;15.83;;;14.23;;
6017;SDS011;3037;51.068;13.780;2022-08-19T10:04:17;19.80;;;16.40;;
6017;SDS011;3037;51.068;13.780;2022-08-19T10:06:42;15.73;;;13.93;;
6017;SDS011;3037;51.068;13.780;2022-08-19T10:09:08;21.07;;;14.13;;
6017;SDS011;3037;51.068;13.780;2022-08-19T10:11:36;17.10;;;14.37;;
6017;SDS011;3037;51.068;13.780;2022-08-19T10:14:04;15.90;;;14.40;;
6017;SDS011;3037;51.068;13.780;2022-08-19T10:16:31;19.43;;;13.67;;
6017;SDS011;3037;51.068;13.780;2022-08-19T10:18:57;17.77;;;14.70;;
6017;SDS011;3037;51.068;13.780;2022-08-19T10:21:25;14.70;;;13.30;;
6017;SDS011;3037;51.068;13.780;2022-08-19T10:23:53;13.60;;;12.20;;
6017;SDS011;3037;51.068;13.780;2022-08-19T10:26:24;14.63;;;13.07;;
6017;SDS011;3037;51.068;13.780;2022-08-19T10:28:55;14.70;;;12.33;;
6017;SDS011;3037;51.068;13.780;2022-08-19T10:31:29;12.97;;;11.40;;
6017;SDS011;3037;51.068;13.780;2022-08-19T10:33:56;12.90;;;11.53;;
6017;SDS011;3037;51.068;13.780;2022-08-19T10:36:29;11.07;;;9.97;;
6017;SDS011;3037;51.068;13.780;2022-08-19T10:38:56;10.33;;;9.53;;
6017;SDS011;3037;51.068;13.780;2022-08-19T10:41:33;10.43;;;9.53;;
6017;SDS011;3037;51.068;13.780;2022-08-19T10:44:05;10.73;;;9.70;;
6017;SDS011;3037;51.068;13.780;2022-08-19T10:46:36;10.37;;;9.33;;
6017;SDS011;3037;51.068;13.780;2022-08-19T10:49:06;9.87;;;8.93;;
6017;SDS011;3037;51.068;13.780;2022-08-19T10:51:33;14.30;;;9.57;;
6017;SDS011;3037;51.068;13.780;2022-08-19T10:54:17;8.73;;;8.03;;
6017;SDS011;3037;51.068;13.780;2022-08-19T10:56:43;10.80;;;8.83;;
6017;SDS011;3037;51.068;13.780;2022-08-19T10:59:21;8.83;;;8.13;;
6017;SDS011;3037;51.068;13.780;2022-08-19T11:01:49;9.97;;;9.07;;
6017;SDS011;3037;51.068;13.780;2022-08-19T11:04:16;9.03;;;8.27;;
6017;SDS011;3037;51.068;13.780;2022-08-19T11:06:46;9.63;;;8.67;;
6017;SDS011;3037;51.068;13.780;2022-08-19T11:09:14;9.40;;;8.50;;
6017;SDS011;3037;51.068;13.780;2022-08-19T11:11:42;9.50;;;8.60;;
6017;SDS011;3037;51.068;13.780;2022-08-19T11:14:08;9.30;;;8.40;;
6017;SDS011;3037;51.068;13.780;2022-08-19T11:16:36;10.17;;;9.03;;
6017;SDS011;3037;51.068;13.780;2022-08-19T11:19:04;9.23;;;8.33;;
6017;SDS011;3037;51.068;13.780;2022-08-19T11:21:33;8.37;;;7.60;;
6017;SDS011;3037;51.068;13.780;2022-08-19T11:24:02;9.73;;;8.83;;
6017;SDS011;3037;51.068;13.780;2022-08-19T11:26:31;9.60;;;8.70;;
6017;SDS011;3037;51.068;13.780;2022-08-19T11:28:58;10.30;;;9.00;;
6017;SDS011;3037;51.068;13.780;2022-08-19T11:31:29;10.00;;;9.00;;
6017;SDS011;3037;51.068;13.780;2022-08-19T11:33:57;10.50;;;9.70;;
6017;SDS011;3037;51.068;13.780;2022-08-19T11:36:24;11.77;;;10.67;;
6017;SDS011;3037;51.068;13.780;2022-08-19T11:38:51;12.80;;;11.50;;
6017;SDS011;3037;51.068;13.780;2022-08-19T11:41:18;13.97;;;10.37;;
6017;SDS011;3037;51.068;13.780;2022-08-19T11:43:45;11.77;;;10.60;;
6017;SDS011;3037;51.068;13.780;2022-08-19T11:46:12;11.33;;;10.33;;
6017;SDS011;3037;51.068;13.780;2022-08-19T11:48:39;11.80;;;10.70;;
6017;SDS011;3037;51.068;13.780;2022-08-19T11:51:06;11.90;;;10.80;;
6017;SDS011;3037;51.068;13.780;2022-08-19T11:53:33;12.17;;;11.00;;
6017;SDS011;3037;51.068;13.780;2022-08-19T11:55:59;12.23;;;11.13;;
6017;SDS011;3037;51.068;13.780;2022-08-19T11:58:25;14.27;;;12.17;;
6017;SDS011;3037;51.068;13.780;2022-08-19T12:00:51;16.50;;;11.97;;
6017;SDS011;3037;51.068;13.780;2022-08-19T12:03:17;11.47;;;10.47;;
6017;SDS011;3037;51.068;13.780;2022-08-19T12:05:44;14.47;;;12.70;;
6017;SDS011;3037;51.068;13.780;2022-08-19T12:08:09;13.80;;;12.40;;
6017;SDS011;3037;51.068;13.780;2022-08-19T12:10:37;23.77;;;13.47;;
6017;SDS011;3037;51.068;13.780;2022-08-19T12:13:03;14.17;;;12.50;;
6017;SDS011;3037;51.068;13.780;2022-08-19T12:15:29;14.87;;;13.37;;
6017;SDS011;3037;51.068;13.780;2022-08-19T12:17:56;14.97;;;13.40;;
6017;SDS011;3037;51.068;13.780;2022-08-19T12:20:22;22.43;;;16.07;;
6017;SDS011;3037;51.068;13.780;2022-08-19T12:22:48;19.57;;;16.10;;
6017;SDS011;3037;51.068;13.780;2022-08-19T12:25:15;22.77;;;16.10;;
6017;SDS011;3037;51.068;13.780;2022-08-19T12:27:40;20.13;;;14.97;;
6017;SDS011;3037;51.068;13.780;2022-08-19T12:30:07;18.90;;;15.07;;
6017;SDS011;3037;51.068;13.780;2022-08-19T12:32:34;21.93;;;15.90;;
6017;SDS011;3037;51.068;13.780;2022-08-19T12:35:00;20.47;;;18.10;;
6017;SDS011;3037;51.068;13.780;2022-08-19T12:37:26;19.73;;;17.07;;
6017;SDS011;3037;51.068;13.780;2022-08-19T12:39:51;24.53;;;17.20;;
6017;SDS011;3037;51.068;13.780;2022-08-19T12:42:17;23.53;;;18.80;;
6017;SDS011;3037;51.068;13.780;2022-08-19T12:44:43;23.07;;;19.77;;
6017;SDS011;3037;51.068;13.780;2022-08-19T12:47:10;23.00;;;18.80;;
6017;SDS011;3037;51.068;13.780;2022-08-19T12:49:37;23.40;;;19.20;;
6017;SDS011;3037;51.068;13.780;2022-08-19T12:52:04;19.80;;;17.70;;
6017;SDS011;3037;51.068;13.780;2022-08-19T12:54:32;29.63;;;18.43;;
6017;SDS011;3037;51.068;13.780;2022-08-19T12:56:59;22.30;;;18.33;;
6017;SDS011;3037;51.068;13.780;2022-08-19T12:59:24;30.97;;;18.33;;
6017;SDS011;3037;51.068;13.780;2022-08-19T13:01:51;22.83;;;18.80;;
6017;SDS011;3037;51.068;13.780;2022-08-19T13:04:16;19.63;;;17.40;;
6017;SDS011;3037;51.068;13.780;2022-08-19T13:06:42;20.47;;;16.67;;
6017;SDS011;3037;51.068;13.780;2022-08-19T13:09:08;24.43;;;19.43;;
6017;SDS011;3037;51.068;13.780;2022-08-19T13:11:34;23.20;;;18.43;;
6017;SDS011;3037;51.068;13.780;2022-08-19T13:14:02;20.00;;;16.57;;
6017;SDS011;3037;51.068;13.780;2022-08-19T13:16:29;19.90;;;17.00;;
6017;SDS011;3037;51.068;13.780;2022-08-19T13:18:55;17.87;;;16.07;;
6017;SDS011;3037;51.068;13.780;2022-08-19T13:21:23;25.23;;;16.10;;
6017;SDS011;3037;51.068;13.780;2022-08-19T13:23:50;18.97;;;16.80;;
6017;SDS011;3037;51.068;13.780;2022-08-19T13:26:17;23.07;;;15.13;;
6017;SDS011;3037;51.068;13.780;2022-08-19T13:28:43;20.63;;;17.00;;
6017;SDS011;3037;51.068;13.780;2022-08-19T13:31:42;23.80;;;17.90;;
6017;SDS011;3037;51.068;13.780;2022-08-19T13:34:33;21.37;;;18.33;;
6017;SDS011;3037;51.068;13.780;2022-08-19T13:39:25;20.30;;;18.10;;
6017;SDS011;3037;51.068;13.780;2022-08-19T13:41:52;28.37;;;20.10;;
6017;SDS011;3037;51.068;13.780;2022-08-19T13:44:18;21.80;;;19.50;;
6017;SDS011;3037;51.068;13.780;2022-08-19T13:46:44;26.90;;;20.40;;
6017;SDS011;3037;51.068;13.780;2022-08-19T13:49:11;37.17;;;20.33;;
6017;SDS011;3037;51.068;13.780;2022-08-19T13:51:38;21.33;;;18.90;;
6017;SDS011;3037;51.068;13.780;2022-08-19T13:54:07;22.93;;;19.97;;
6017;SDS011;3037;51.068;13.780;2022-08-19T13:56:34;26.37;;;19.03;;
6017;SDS011;3037;51.068;13.780;2022-08-19T13:59:04;25.10;;;20.03;;
6017;SDS011;3037;51.068;13.780;2022-08-19T14:01:29;25.00;;;19.80;;
6017;SDS011;3037;51.068;13.780;2022-08-19T14:03:55;23.10;;;20.10;;
6017;SDS011;3037;51.068;13.780;2022-08-19T14:06:20;27.27;;;20.40;;
6017;SDS011;3037;51.068;13.780;2022-08-19T14:08:47;22.20;;;19.80;;
6017;SDS011;3037;51.068;13.780;2022-08-19T14:11:12;26.10;;;20.90;;
6017;SDS011;3037;51.068;13.780;2022-08-19T14:13:39;28.10;;;21.23;;
6017;SDS011;3037;51.068;13.780;2022-08-19T14:16:08;27.50;;;22.30;;
6017;SDS011;3037;51.068;13.780;2022-08-19T14:18:35;26.50;;;22.17;;
6017;SDS011;3037;51.068;13.780;2022-08-19T14:21:01;25.43;;;21.83;;
6017;SDS011;3037;51.068;13.780;2022-08-19T14:23:27;25.27;;;21.83;;
6017;SDS011;3037;51.068;13.780;2022-08-19T14:26:02;27.60;;;21.37;;
6017;SDS011;3037;51.068;13.780;2022-08-19T14:28:32;28.80;;;22.70;;
6017;SDS011;3037;51.068;13.780;2022-08-19T14:30:58;34.17;;;24.40;;
6017;SDS011;3037;51.068;13.780;2022-08-19T14:33:24;28.63;;;22.67;;
6017;SDS011;3037;51.068;13.780;2022-08-19T14:35:49;32.33;;;24.73;;
6017;SDS011;3037;51.068;13.780;2022-08-19T14:38:16;33.33;;;26.33;;
6017;SDS011;3037;51.068;13.780;2022-08-19T14:40:43;35.97;;;25.67;;
6017;SDS011;3037;51.068;13.780;2022-08-19T14:43:09;33.43;;;28.03;;
6017;SDS011;3037;51.068;13.780;2022-08-19T14:45:36;34.50;;;26.70;;
6017;SDS011;3037;51.068;13.780;2022-08-19T14:48:03;36.73;;;25.73;;
6017;SDS011;3037;51.068;13.780;2022-08-19T14:50:29;47.13;;;27.97;;